Time;durP1;ratioP1;P1;durP2;ratioP2;P2;SDS_P1;SDS_P2;PMS_P1;PMS_P2;Temp;Humidity;BMP_temperature;BMP_pressure;BME280_temperature;BME280_humidity;BME280_pressure;Samples;Min_cycle;Max_cycle;Signal;HPM_P1;HPM_P2
2022/12/09 00:00:52;;;;;;;10.75;8.70;;;6.70;77.40;;;;;;5076254;28;20087;-78
2022/12/09 00:03:18;;;;;;;12.07;8.68;;;6.70;77.40;;;;;;5075235;28;20079;-79
2022/12/09 00:05:43;;;;;;;11.15;8.40;;;6.70;77.40;;;;;;5058160;28;20079;-78
2022/12/09 00:08:09;;;;;;;11.35;8.65;;;6.70;77.40;;;;;;5075223;28;20043;-78
2022/12/09 00:10:35;;;;;;;12.18;9.25;;;6.70;77.40;;;;;;5058286;28;20489;-79
2022/12/09 00:13:01;;;;;;;11.27;8.52;;;6.70;77.40;;;;;;5076404;28;20032;-79
2022/12/09 00:15:26;;;;;;;11.45;8.82;;;6.70;77.40;;;;;;5074786;28;20032;-79
2022/12/09 00:17:52;;;;;;;11.27;9.23;;;6.70;77.40;;;;;;5058391;28;20495;-77
2022/12/09 00:20:17;;;;;;;12.00;9.15;;;6.70;77.40;;;;;;5058589;28;20067;-80
2022/12/09 00:22:43;;;;;;;11.43;9.00;;;6.70;77.40;;;;;;5058117;28;20116;-78
2022/12/09 00:25:09;;;;;;;10.20;7.72;;;6.70;77.40;;;;;;5058828;28;20020;-79
2022/12/09 00:27:35;;;;;;;10.48;8.27;;;6.70;77.40;;;;;;5075801;28;20036;-78
2022/12/09 00:30:00;;;;;;;12.07;8.90;;;6.70;77.40;;;;;;5075964;28;20081;-78
2022/12/09 00:32:26;;;;;;;12.25;9.55;;;6.70;77.40;;;;;;5058035;28;20039;-79
2022/12/09 00:34:52;;;;;;;11.68;9.00;;;6.70;77.40;;;;;;5058119;28;20533;-79
2022/12/09 00:37:18;;;;;;;11.00;8.52;;;6.70;77.40;;;;;;5057597;28;20032;-79
2022/12/09 00:39:44;;;;;;;10.77;9.15;;;6.70;77.40;;;;;;5057811;28;20056;-79
2022/12/09 00:42:10;;;;;;;11.07;8.68;;;6.70;77.40;;;;;;5074519;28;20025;-78
2022/12/09 00:44:35;;;;;;;11.80;9.07;;;6.70;77.40;;;;;;5057736;28;20511;-78
2022/12/09 00:47:01;;;;;;;10.90;8.65;;;6.70;77.40;;;;;;5074690;28;20060;-80
2022/12/09 00:49:27;;;;;;;11.05;8.65;;;6.70;77.40;;;;;;5041169;28;20021;-78
2022/12/09 00:51:53;;;;;;;11.02;8.80;;;6.70;77.40;;;;;;5057861;28;20036;-78
2022/12/09 00:54:21;;;;;;;12.02;8.95;;;6.70;77.40;;;;;;5075612;28;20064;-78
2022/12/09 00:56:46;;;;;;;11.35;8.25;;;6.70;77.40;;;;;;5057973;28;20032;-79
2022/12/09 00:59:12;;;;;;;11.52;8.77;;;6.60;77.40;;;;;;5041134;28;20029;-79
2022/12/09 01:01:38;;;;;;;12.30;8.38;;;6.70;77.40;;;;;;5040975;28;20040;-82
2022/12/09 01:04:07;;;;;;;11.88;8.90;;;6.60;77.30;;;;;;5057232;28;20085;-79
2022/12/09 01:06:33;;;;;;;11.45;8.68;;;6.60;77.40;;;;;;5074089;28;20037;-82
2022/12/09 01:08:59;;;;;;;11.50;8.63;;;6.60;77.40;;;;;;5057455;28;20044;-81
2022/12/09 01:11:27;;;;;;;11.77;8.95;;;6.60;77.40;;;;;;5074527;28;20137;-79
2022/12/09 01:13:53;;;;;;;11.70;8.52;;;6.60;77.40;;;;;;5074709;28;20381;-78
2022/12/09 01:16:23;;;;;;;11.73;8.98;;;6.60;77.40;;;;;;5073836;28;20029;-78
2022/12/09 01:18:50;;;;;;;12.40;8.95;;;6.60;77.40;;;;;;5057713;28;20033;-79
2022/12/09 01:21:16;;;;;;;11.45;8.30;;;6.70;78.10;;;;;;5075316;28;20024;-78
2022/12/09 01:23:42;;;;;;;12.02;8.95;;;6.60;77.40;;;;;;5073711;28;20061;-80
2022/12/09 01:26:08;;;;;;;12.18;9.30;;;6.60;77.30;;;;;;5056951;28;20475;-82
2022/12/09 01:28:37;;;;;;;11.68;9.07;;;6.60;77.40;;;;;;5073690;28;20040;-80
2022/12/09 01:31:09;;;;;;;12.02;8.45;;;6.60;77.40;;;;;;5073556;28;20058;-79
2022/12/09 01:33:35;;;;;;;11.38;8.80;;;6.60;77.40;;;;;;5073544;28;20031;-79
2022/12/09 01:36:05;;;;;;;12.65;9.63;;;6.60;77.40;;;;;;5073403;28;20025;-78
2022/12/09 01:38:30;;;;;;;11.30;9.07;;;6.60;77.40;;;;;;5074583;28;20029;-79
2022/12/09 01:40:57;;;;;;;11.88;9.38;;;6.60;77.40;;;;;;5074572;28;20048;-79
2022/12/09 01:43:22;;;;;;;11.25;8.90;;;6.60;77.40;;;;;;5073200;28;20402;-78
2022/12/09 01:45:48;;;;;;;12.18;9.05;;;6.60;77.40;;;;;;5073349;28;20032;-80
2022/12/09 01:48:18;;;;;;;12.10;9.07;;;6.60;77.40;;;;;;5056025;28;20477;-81
2022/12/09 01:50:54;;;;;;;13.30;9.70;;;6.60;77.40;;;;;;5056421;28;20029;-79
2022/12/09 01:53:25;;;;;;;12.32;9.63;;;6.60;77.40;;;;;;5056799;28;20067;-78
2022/12/09 01:55:54;;;;;;;12.95;9.38;;;6.60;77.40;;;;;;5073879;28;20381;-79
2022/12/09 01:58:20;;;;;;;11.40;8.75;;;6.60;77.30;;;;;;5056382;28;20178;-80
2022/12/09 02:00:46;;;;;;;11.95;9.40;;;6.60;77.40;;;;;;5056580;28;20469;-79
2022/12/09 02:03:12;;;;;;;12.57;9.80;;;6.60;77.40;;;;;;5056258;28;20074;-80
2022/12/09 02:05:38;;;;;;;11.73;9.20;;;6.60;77.40;;;;;;5055920;28;20460;-80
2022/12/09 02:08:12;;;;;;;13.48;9.43;;;6.60;77.40;;;;;;5056032;28;20036;-78
2022/12/09 02:11:18;;;;;;;13.02;9.88;;;6.60;77.40;;;;;;5073534;28;20035;-79
2022/12/09 02:14:01;;;;;;;12.18;8.43;;;6.60;77.40;;;;;;4995753;28;20482;-79
2022/12/09 02:16:33;;;;;;;12.52;9.32;;;6.60;77.40;;;;;;5067271;28;20068;-80
2022/12/09 02:19:20;;;;;;;12.43;9.48;;;6.60;77.40;;;;;;5073008;28;20039;-79
2022/12/09 02:21:56;;;;;;;12.10;9.43;;;6.60;77.40;;;;;;5073731;28;20452;-79
2022/12/09 02:24:55;;;;;;;12.00;9.05;;;6.60;77.40;;;;;;5056039;28;20074;-82
2022/12/09 02:27:41;;;;;;;12.48;9.32;;;6.60;77.40;;;;;;5055667;28;20028;-82
2022/12/09 02:30:07;;;;;;;12.02;8.82;;;6.60;77.40;;;;;;5055787;28;20078;-79
2022/12/09 02:33:09;;;;;;;13.95;10.55;;;6.60;77.30;;;;;;5072258;28;20114;-80
2022/12/09 02:35:47;;;;;;;11.52;9.02;;;6.60;77.40;;;;;;5056435;28;20484;-82
2022/12/09 02:38:19;;;;;;;11.85;9.20;;;6.60;77.40;;;;;;5073043;28;20032;-80
2022/12/09 02:41:08;;;;;;;12.55;9.45;;;6.60;77.40;;;;;;5039366;28;20485;-79
2022/12/09 02:43:41;;;;;;;11.65;8.90;;;6.60;77.50;;;;;;5073063;28;20029;-78
2022/12/09 02:46:09;;;;;;;12.63;9.23;;;6.50;77.40;;;;;;5073066;28;20163;-81
2022/12/09 02:48:39;;;;;;;13.13;9.93;;;6.60;77.40;;;;;;5039781;28;20085;-78
2022/12/09 02:51:11;;;;;;;13.27;9.77;;;6.60;77.50;;;;;;5072827;28;20020;-80
2022/12/09 02:53:38;;;;;;;12.82;9.35;;;6.60;77.50;;;;;;5072579;28;20025;-78
2022/12/09 02:56:06;;;;;;;12.43;9.57;;;6.60;77.40;;;;;;5055257;28;20033;-79
2022/12/09 02:58:33;;;;;;;12.65;9.38;;;6.60;77.40;;;;;;5056593;28;20097;-79
2022/12/09 03:01:00;;;;;;;13.00;9.98;;;6.60;77.40;;;;;;5078781;28;20132;-80
2022/12/09 03:03:29;;;;;;;12.57;10.18;;;6.60;77.40;;;;;;5062198;28;20028;-79
2022/12/09 03:06:08;;;;;;;13.10;10.07;;;6.50;77.40;;;;;;5080458;28;20082;-79
2022/12/09 03:08:39;;;;;;;14.07;10.23;;;6.60;77.50;;;;;;5080147;28;20483;-77
2022/12/09 03:11:14;;;;;;;14.02;10.10;;;6.60;77.40;;;;;;5080215;28;20032;-79
2022/12/09 03:13:58;;;;;;;12.35;9.25;;;6.60;77.40;;;;;;5079808;28;20042;-79
2022/12/09 03:16:55;;;;;;;11.88;9.38;;;6.60;77.40;;;;;;5080269;28;20122;-80
2022/12/09 03:19:46;;;;;;;12.43;9.40;;;6.60;77.40;;;;;;5061894;28;20035;-80
2022/12/09 03:22:17;;;;;;;12.75;9.27;;;6.50;77.40;;;;;;5078952;28;20108;-79
2022/12/09 03:25:07;;;;;;;13.52;9.50;;;6.50;77.40;;;;;;5079947;28;20037;-79
2022/12/09 03:27:53;;;;;;;13.13;9.38;;;6.50;77.40;;;;;;5079823;28;20457;-80
2022/12/09 03:30:19;;;;;;;13.30;10.13;;;6.50;77.40;;;;;;5045102;28;20031;-79
2022/12/09 03:32:45;;;;;;;12.25;9.57;;;6.50;77.40;;;;;;5079277;28;20021;-78
2022/12/09 03:35:40;;;;;;;14.48;10.10;;;6.50;77.40;;;;;;5079769;28;20025;-79
2022/12/09 03:38:10;;;;;;;12.85;9.18;;;6.50;77.50;;;;;;5075665;28;20044;-78
2022/12/09 03:40:37;;;;;;;13.05;9.60;;;6.50;77.40;;;;;;5061755;28;20051;-79
2022/12/09 03:43:19;;;;;;;13.52;10.23;;;6.50;77.40;;;;;;5061770;28;20025;-78
2022/12/09 03:45:45;;;;;;;12.05;9.45;;;6.50;77.40;;;;;;5061826;28;20028;-80
2022/12/09 03:48:11;;;;;;;12.68;9.55;;;6.50;77.40;;;;;;5079452;28;20033;-79
2022/12/09 03:50:52;;;;;;;13.10;9.48;;;6.50;77.50;;;;;;5079434;28;20032;-78
2022/12/09 03:53:24;;;;;;;11.63;9.05;;;6.50;77.50;;;;;;5061927;28;20419;-78
2022/12/09 03:56:05;;;;;;;13.25;9.40;;;6.50;77.40;;;;;;5046125;28;20038;-79
2022/12/09 03:58:33;;;;;;;11.10;8.90;;;6.50;77.50;;;;;;5062575;28;20436;-79
2022/12/09 04:01:01;;;;;;;12.65;9.48;;;6.50;77.40;;;;;;5078291;28;20024;-78
2022/12/09 04:03:26;;;;;;;12.77;9.63;;;6.50;77.40;;;;;;5061458;28;20086;-78
2022/12/09 04:05:52;;;;;;;13.18;9.48;;;6.50;77.40;;;;;;5078541;28;20060;-79
2022/12/09 04:08:19;;;;;;;12.20;8.95;;;6.50;77.40;;;;;;5061680;28;20077;-80
2022/12/09 04:10:44;;;;;;;12.40;9.57;;;6.50;77.40;;;;;;5077218;28;20033;-78
2022/12/09 04:13:10;;;;;;;12.43;9.18;;;6.50;77.40;;;;;;5074959;28;20029;-79
2022/12/09 04:15:36;;;;;;;12.30;9.25;;;6.40;77.40;;;;;;5075970;28;20028;-79
2022/12/09 04:18:02;;;;;;;12.23;9.05;;;6.40;77.40;;;;;;5058186;28;20028;-79
2022/12/09 04:20:27;;;;;;;12.32;8.65;;;6.40;77.40;;;;;;5074687;28;20039;-80
2022/12/09 04:22:55;;;;;;;12.40;9.68;;;6.50;77.40;;;;;;5075742;28;20059;-79
2022/12/09 04:25:20;;;;;;;11.95;9.05;;;6.50;77.40;;;;;;5058029;28;20028;-81
2022/12/09 04:27:48;;;;;;;12.82;9.45;;;6.40;77.30;;;;;;5074695;28;20050;-81
2022/12/09 04:30:16;;;;;;;12.20;9.13;;;6.40;77.40;;;;;;5074818;28;20112;-79
2022/12/09 04:32:42;;;;;;;12.02;8.68;;;6.40;77.40;;;;;;5042149;28;20124;-78
2022/12/09 04:35:08;;;;;;;13.10;9.60;;;6.40;77.40;;;;;;5057958;28;20503;-79
2022/12/09 04:37:36;;;;;;;11.75;8.77;;;6.40;77.40;;;;;;5075941;28;20111;-80
2022/12/09 04:40:05;;;;;;;11.48;8.95;;;6.40;77.40;;;;;;5074572;28;20024;-79
2022/12/09 04:42:31;;;;;;;13.10;9.35;;;6.40;77.40;;;;;;5057546;28;20033;-78
2022/12/09 04:44:56;;;;;;;13.38;9.50;;;6.40;77.40;;;;;;5074575;28;20377;-78
2022/12/09 04:47:22;;;;;;;11.93;8.70;;;6.40;77.40;;;;;;5074422;28;20135;-80
2022/12/09 04:49:48;;;;;;;11.93;9.18;;;6.40;77.40;;;;;;5074299;28;20547;-79
2022/12/09 04:52:16;;;;;;;11.10;8.48;;;6.40;77.40;;;;;;5074896;28;20591;-78
2022/12/09 04:54:42;;;;;;;11.05;8.13;;;6.40;77.40;;;;;;5074484;28;20028;-79
2022/12/09 04:57:07;;;;;;;10.93;8.30;;;6.40;77.40;;;;;;5075811;28;20024;-79
2022/12/09 04:59:33;;;;;;;12.20;8.77;;;6.40;77.40;;;;;;5074344;28;20025;-79
2022/12/09 05:01:59;;;;;;;11.30;8.23;;;6.30;77.40;;;;;;5041029;28;20468;-79
2022/12/09 05:04:25;;;;;;;11.80;8.68;;;6.30;77.30;;;;;;5057668;28;20044;-78
2022/12/09 05:06:51;;;;;;;11.50;8.43;;;6.30;77.30;;;;;;5075466;28;20036;-79
2022/12/09 05:09:16;;;;;;;10.95;7.65;;;6.30;77.40;;;;;;5073946;28;20465;-83
2022/12/09 05:11:42;;;;;;;11.05;8.55;;;6.30;77.40;;;;;;5075072;28;20033;-79
2022/12/09 05:14:08;;;;;;;11.07;7.95;;;6.30;77.40;;;;;;5073922;28;20116;-83
2022/12/09 05:16:33;;;;;;;10.43;8.18;;;6.30;77.40;;;;;;5040855;28;20070;-80
2022/12/09 05:18:59;;;;;;;12.32;8.88;;;6.30;77.40;;;;;;5057198;28;20119;-79
2022/12/09 05:21:25;;;;;;;11.65;8.18;;;6.20;77.40;;;;;;5056636;28;20469;-79
2022/12/09 05:23:51;;;;;;;11.02;7.75;;;6.30;77.50;;;;;;5072930;28;20094;-80
2022/12/09 05:26:19;;;;;;;10.82;8.15;;;6.30;77.40;;;;;;5073964;28;20032;-78
2022/12/09 05:28:45;;;;;;;11.15;7.80;;;6.20;77.40;;;;;;5074700;28;20040;-78
2022/12/09 05:31:16;;;;;;;10.55;7.82;;;6.20;77.40;;;;;;5057150;28;20538;-79
2022/12/09 05:33:43;;;;;;;10.20;7.90;;;6.20;78.10;;;;;;5040589;28;20351;-80
2022/12/09 05:36:14;;;;;;;11.38;8.02;;;6.20;77.40;;;;;;5056860;28;20059;-78
2022/12/09 05:38:40;;;;;;;11.73;7.88;;;6.20;77.40;;;;;;5074764;28;20119;-81
2022/12/09 05:41:06;;;;;;;11.65;8.02;;;6.20;77.40;;;;;;5073181;28;20112;-79
2022/12/09 05:43:33;;;;;;;11.02;8.00;;;6.20;77.40;;;;;;5074565;28;20033;-80
2022/12/09 05:46:00;;;;;;;10.57;7.72;;;6.20;77.40;;;;;;5056703;28;20518;-79
2022/12/09 05:48:25;;;;;;;10.25;7.80;;;6.20;77.40;;;;;;5074967;28;20024;-78
2022/12/09 05:51:09;;;;;;;11.23;8.15;;;6.20;77.40;;;;;;5040123;28;20048;-79
2022/12/09 05:53:35;;;;;;;10.00;7.10;;;6.20;77.40;;;;;;5073354;28;20036;-82
2022/12/09 05:56:01;;;;;;;9.77;7.20;;;6.20;77.40;;;;;;5074704;28;20056;-79
2022/12/09 05:58:27;;;;;;;10.95;7.88;;;6.20;77.40;;;;;;5056385;28;20114;-79
2022/12/09 06:00:55;;;;;;;9.40;7.32;;;6.20;77.40;;;;;;5073948;28;20503;-78
2022/12/09 06:03:22;;;;;;;9.98;6.97;;;6.10;77.30;;;;;;5073108;28;20107;-79
2022/12/09 06:05:47;;;;;;;10.40;7.65;;;6.20;77.40;;;;;;5074186;28;20401;-79
2022/12/09 06:08:13;;;;;;;11.40;7.78;;;6.10;77.30;;;;;;5073051;28;20028;-80
2022/12/09 06:10:40;;;;;;;10.40;7.40;;;6.10;77.30;;;;;;5073138;28;20035;-79
2022/12/09 06:13:06;;;;;;;11.90;8.20;;;6.10;77.30;;;;;;5072755;28;20020;-81
2022/12/09 06:15:33;;;;;;;10.48;7.60;;;6.10;77.30;;;;;;5073247;28;20028;-79
2022/12/09 06:17:58;;;;;;;9.70;7.40;;;6.10;77.30;;;;;;5056414;28;20433;-79
2022/12/09 06:20:24;;;;;;;9.98;7.28;;;6.10;77.30;;;;;;5073908;28;20067;-79
2022/12/09 06:22:50;;;;;;;9.82;7.35;;;6.10;77.40;;;;;;5039227;28;20028;-78
2022/12/09 06:25:16;;;;;;;10.50;7.47;;;6.10;77.40;;;;;;5073928;28;20021;-79
2022/12/09 06:27:41;;;;;;;11.20;8.02;;;6.10;77.40;;;;;;5073878;28;20041;-79
2022/12/09 06:30:07;;;;;;;9.63;7.53;;;6.10;77.40;;;;;;5072327;28;20044;-79
2022/12/09 06:32:33;;;;;;;11.48;7.75;;;6.10;77.40;;;;;;5072683;28;20096;-79
2022/12/09 06:34:59;;;;;;;9.52;6.95;;;6.10;77.30;;;;;;5038745;28;20066;-79
2022/12/09 06:37:25;;;;;;;9.52;6.57;;;6.00;77.30;;;;;;5055675;28;20107;-79
2022/12/09 06:39:50;;;;;;;9.75;7.07;;;6.00;77.30;;;;;;5055772;28;20044;-79
2022/12/09 06:42:16;;;;;;;9.93;6.72;;;6.00;77.30;;;;;;5074334;28;20369;-80
2022/12/09 06:44:43;;;;;;;11.05;7.40;;;6.00;77.30;;;;;;5039194;28;20056;-79
2022/12/09 06:47:08;;;;;;;10.50;7.05;;;6.00;77.30;;;;;;5039720;28;20482;-80
2022/12/09 06:49:34;;;;;;;10.20;6.80;;;6.00;77.30;;;;;;5072548;28;20094;-78
2022/12/09 06:52:00;;;;;;;9.55;6.95;;;6.00;77.30;;;;;;5055569;28;20083;-77
2022/12/09 06:54:26;;;;;;;10.43;7.55;;;6.00;77.30;;;;;;5055722;28;20467;-80
2022/12/09 06:56:51;;;;;;;10.00;6.95;;;6.00;77.30;;;;;;5055329;28;20082;-79
2022/12/09 06:59:17;;;;;;;11.15;8.02;;;6.00;77.30;;;;;;5072215;28;20035;-78
2022/12/09 07:01:44;;;;;;;10.98;7.90;;;5.90;77.20;;;;;;5055555;28;20146;-78
2022/12/09 07:04:12;;;;;;;12.07;8.23;;;5.90;77.20;;;;;;5055556;28;20056;-79
2022/12/09 07:06:41;;;;;;;10.43;7.68;;;5.90;77.20;;;;;;5072031;28;20028;-78
2022/12/09 07:09:08;;;;;;;11.05;8.20;;;5.90;77.20;;;;;;5055205;28;20068;-79
2022/12/09 07:11:34;;;;;;;10.73;7.78;;;5.90;77.20;;;;;;5073389;28;20063;-77
2022/12/09 07:14:00;;;;;;;10.25;7.55;;;5.90;77.30;;;;;;5072457;28;20056;-79
2022/12/09 07:16:27;;;;;;;10.15;7.15;;;5.80;77.20;;;;;;5055813;28;20044;-78
2022/12/09 07:18:53;;;;;;;10.98;8.02;;;5.80;77.20;;;;;;5055327;28;20036;-78
2022/12/09 07:21:20;;;;;;;11.20;8.00;;;5.90;77.30;;;;;;5073088;28;20032;-79
2022/12/09 07:23:47;;;;;;;11.00;8.30;;;5.80;77.20;;;;;;5055233;28;20029;-78
2022/12/09 07:26:13;;;;;;;10.30;7.60;;;5.80;77.20;;;;;;5072909;28;20444;-80
2022/12/09 07:28:41;;;;;;;10.77;7.43;;;5.80;77.20;;;;;;5055054;28;20040;-74
2022/12/09 07:31:17;;;;;;;10.57;7.40;;;5.70;77.10;;;;;;5055153;28;20100;-78
2022/12/09 07:33:42;;;;;;;10.40;7.45;;;5.80;77.30;;;;;;5072880;28;20052;-79
2022/12/09 07:36:08;;;;;;;9.43;7.10;;;5.70;77.20;;;;;;5055391;28;20064;-80
2022/12/09 07:38:34;;;;;;;10.93;7.70;;;5.70;77.20;;;;;;5073334;28;20138;-77
2022/12/09 07:41:07;;;;;;;11.57;7.63;;;5.70;77.20;;;;;;5072960;28;20036;-78
2022/12/09 07:43:34;;;;;;;11.70;8.35;;;5.70;77.20;;;;;;5071867;28;20032;-78
2022/12/09 07:46:06;;;;;;;11.75;8.45;;;5.70;77.20;;;;;;5074190;28;20082;-76
2022/12/09 07:48:32;;;;;;;10.43;7.35;;;5.60;77.10;;;;;;5058497;28;20530;-77
2022/12/09 07:51:03;;;;;;;11.68;7.93;;;5.60;77.10;;;;;;5059627;28;20068;-77
2022/12/09 07:53:29;;;;;;;10.35;7.55;;;5.60;77.10;;;;;;5076620;28;20480;-79
2022/12/09 07:55:55;;;;;;;10.30;7.45;;;5.60;77.10;;;;;;5076907;28;20040;-77
2022/12/09 07:58:21;;;;;;;10.40;7.80;;;5.50;77.10;;;;;;5076699;28;20059;-82
2022/12/09 08:00:50;;;;;;;9.32;7.30;;;5.50;77.70;;;;;;5075340;28;20090;-79
2022/12/09 08:03:16;;;;;;;11.45;8.02;;;5.50;77.10;;;;;;5075370;28;20032;-78
2022/12/09 08:05:52;;;;;;;11.52;8.68;;;5.50;77.10;;;;;;5058322;28;20053;-80
2022/12/09 08:08:17;;;;;;;12.00;8.88;;;5.50;77.10;;;;;;5058262;28;20192;-79
2022/12/09 08:10:45;;;;;;;12.70;9.23;;;5.40;77.00;;;;;;5059175;28;20049;-79
2022/12/09 08:13:11;;;;;;;11.95;7.97;;;5.40;77.00;;;;;;5058315;28;20032;-79
2022/12/09 08:15:37;;;;;;;11.80;8.57;;;5.40;77.00;;;;;;5075058;28;20107;-79
2022/12/09 08:18:03;;;;;;;12.48;8.63;;;5.40;77.00;;;;;;5075692;28;20075;-80
2022/12/09 08:20:30;;;;;;;12.77;8.80;;;5.40;77.00;;;;;;5074677;28;20062;-80
2022/12/09 08:22:56;;;;;;;11.68;8.60;;;5.40;77.00;;;;;;5074799;28;20438;-81
2022/12/09 08:25:22;;;;;;;12.38;8.73;;;5.40;77.00;;;;;;5076271;28;20041;-79
2022/12/09 08:27:48;;;;;;;11.10;8.05;;;5.30;77.00;;;;;;5075586;28;20043;-78
2022/12/09 08:30:15;;;;;;;13.98;9.82;;;5.40;77.10;;;;;;5075887;28;20158;-77
2022/12/09 08:32:41;;;;;;;12.40;8.40;;;5.30;77.00;;;;;;5074440;28;20166;-77
2022/12/09 08:35:13;;;;;;;13.50;9.45;;;5.40;77.00;;;;;;5058197;28;20107;-77
2022/12/09 08:37:40;;;;;;;14.30;9.90;;;5.30;77.00;;;;;;5058348;28;20040;-82
2022/12/09 08:40:06;;;;;;;12.40;8.98;;;5.30;77.00;;;;;;5074705;28;20033;-78
2022/12/09 08:42:32;;;;;;;12.27;9.00;;;5.30;77.00;;;;;;5058795;28;20111;-77
2022/12/09 08:44:58;;;;;;;12.98;9.13;;;5.30;77.00;;;;;;5074469;28;20109;-77
2022/12/09 08:47:23;;;;;;;12.15;8.73;;;5.30;77.00;;;;;;5074292;28;20110;-79
2022/12/09 08:49:49;;;;;;;13.35;9.40;;;5.30;77.00;;;;;;5074376;28;20056;-78
2022/12/09 08:52:15;;;;;;;13.90;9.85;;;5.30;77.00;;;;;;5041863;28;20461;-77
2022/12/09 08:54:40;;;;;;;12.23;8.68;;;5.30;77.60;;;;;;5075324;28;20029;-77
2022/12/09 08:57:06;;;;;;;13.57;9.15;;;5.30;77.60;;;;;;5075291;28;20119;-77
2022/12/09 08:59:32;;;;;;;12.93;9.15;;;5.30;77.00;;;;;;5057304;28;20036;-78
2022/12/09 09:01:57;;;;;;;14.05;9.90;;;5.30;77.00;;;;;;5074491;28;20032;-80
2022/12/09 09:04:23;;;;;;;13.98;9.55;;;5.30;77.00;;;;;;5057138;28;20477;-77
2022/12/09 09:06:50;;;;;;;14.88;9.73;;;5.30;77.10;;;;;;5074378;28;20040;-78
2022/12/09 09:09:17;;;;;;;14.68;10.43;;;5.30;77.00;;;;;;5057238;28;20032;-79
2022/12/09 09:11:43;;;;;;;15.77;10.88;;;5.30;77.10;;;;;;5073596;28;20093;-78
2022/12/09 09:14:12;;;;;;;15.20;10.30;;;5.30;77.10;;;;;;5058023;28;20346;-79
2022/12/09 09:16:39;;;;;;;14.23;10.02;;;5.30;77.00;;;;;;5057147;28;20025;-77
2022/12/09 09:19:05;;;;;;;15.15;10.23;;;5.30;77.10;;;;;;5075253;28;20032;-79
2022/12/09 09:21:31;;;;;;;15.23;10.80;;;5.30;77.00;;;;;;5073303;28;20508;-78
2022/12/09 09:23:58;;;;;;;14.75;10.77;;;5.30;77.10;;;;;;5075034;28;20376;-77
2022/12/09 09:26:26;;;;;;;15.00;9.93;;;5.20;77.00;;;;;;5040669;28;20454;-79
2022/12/09 09:28:54;;;;;;;14.27;10.73;;;5.30;77.10;;;;;;5057006;28;20520;-79
2022/12/09 09:31:21;;;;;;;14.75;10.00;;;5.30;77.10;;;;;;5057044;28;20028;-77
2022/12/09 09:33:48;;;;;;;16.85;11.93;;;5.30;77.10;;;;;;5074389;28;20036;-77
2022/12/09 09:36:19;;;;;;;13.90;10.05;;;5.30;77.10;;;;;;5056933;28;20082;-79
2022/12/09 09:38:48;;;;;;;14.90;10.07;;;5.30;77.20;;;;;;5057412;28;20033;-77
2022/12/09 09:41:25;;;;;;;15.63;10.50;;;5.30;77.10;;;;;;5056696;28;20036;-77
2022/12/09 09:43:53;;;;;;;14.35;9.88;;;5.30;77.10;;;;;;5074368;28;20099;-77
2022/12/09 09:46:36;;;;;;;14.60;9.98;;;5.30;77.10;;;;;;5057693;28;20029;-78
2022/12/09 09:49:05;;;;;;;14.10;9.60;;;5.30;77.10;;;;;;5074174;28;20441;-77
2022/12/09 09:51:34;;;;;;;14.73;9.75;;;5.30;77.10;;;;;;5072703;28;20086;-78
2022/12/09 09:54:04;;;;;;;14.50;10.48;;;5.30;77.10;;;;;;5074488;28;20109;-77
2022/12/09 09:57:01;;;;;;;14.27;9.70;;;5.30;77.10;;;;;;5040145;28;20389;-76
2022/12/09 09:59:43;;;;;;;12.88;9.25;;;5.30;77.20;;;;;;5074571;28;20032;-77
2022/12/09 10:02:17;;;;;;;12.98;8.95;;;5.30;77.10;;;;;;5056528;28;20040;-77
2022/12/09 10:05:03;;;;;;;12.85;9.13;;;5.30;77.10;;;;;;5056526;28;20044;-77
2022/12/09 10:07:42;;;;;;;13.63;8.82;;;5.40;77.20;;;;;;5056067;28;20367;-77
2022/12/09 10:10:37;;;;;;;12.93;8.95;;;5.40;77.20;;;;;;5055974;28;20040;-79
2022/12/09 10:13:26;;;;;;;13.43;8.88;;;5.40;77.20;;;;;;5072762;28;20078;-78
2022/12/09 10:16:07;;;;;;;11.90;8.07;;;5.40;77.20;;;;;;5056196;28;20034;-79
2022/12/09 10:18:39;;;;;;;12.02;8.30;;;5.40;77.20;;;;;;5073462;28;20098;-78
2022/12/09 10:21:17;;;;;;;11.70;8.30;;;5.40;77.20;;;;;;5056110;28;20472;-82
2022/12/09 10:23:44;;;;;;;11.93;8.40;;;5.40;77.20;;;;;;5056163;28;20114;-81
2022/12/09 10:26:20;;;;;;;11.68;8.23;;;5.40;77.20;;;;;;5072569;28;20029;-79
2022/12/09 10:28:52;;;;;;;12.35;8.38;;;5.40;77.10;;;;;;5073874;28;20186;-79
2022/12/09 10:31:18;;;;;;;12.68;8.98;;;5.50;77.20;;;;;;5073931;28;20024;-79
2022/12/09 10:33:47;;;;;;;12.30;8.35;;;5.50;77.20;;;;;;5056128;28;20040;-80
2022/12/09 10:36:25;;;;;;;11.77;8.27;;;5.50;77.20;;;;;;5055344;28;20052;-81
2022/12/09 10:38:51;;;;;;;12.18;8.32;;;5.50;77.20;;;;;;5073642;28;20029;-85
2022/12/09 10:43:33;;;;;;;12.20;9.05;;;5.50;77.10;;;;;;5056534;28;20373;-79
2022/12/09 10:44:23;;;;;;;11.73;7.65;;;5.50;77.10;;;;;;5056065;28;20058;-80
2022/12/09 10:47:04;;;;;;;11.38;7.20;;;5.50;77.20;;;;;;5073564;28;20039;-79
2022/12/09 10:49:31;;;;;;;12.40;8.68;;;5.60;77.20;;;;;;5055871;28;20028;-78
2022/12/09 10:51:57;;;;;;;11.30;7.82;;;5.60;77.10;;;;;;5056216;28;20024;-79
2022/12/09 10:54:32;;;;;;;12.30;8.18;;;5.60;77.20;;;;;;5074062;28;20032;-79
2022/12/09 10:57:10;;;;;;;11.45;7.65;;;5.60;77.20;;;;;;5073477;28;20024;-80
2022/12/09 10:59:37;;;;;;;13.52;8.65;;;5.60;77.20;;;;;;5072492;28;20021;-80
2022/12/09 11:02:08;;;;;;;12.20;8.63;;;5.60;77.10;;;;;;5072705;28;20471;-80
2022/12/09 11:04:39;;;;;;;12.68;8.30;;;5.60;77.20;;;;;;5074302;28;20162;-80
2022/12/09 11:07:11;;;;;;;12.27;8.57;;;5.60;77.20;;;;;;5039294;28;20033;-79
2022/12/09 11:09:43;;;;;;;11.52;7.75;;;5.60;77.20;;;;;;5055983;28;20093;-81
2022/12/09 11:12:32;;;;;;;11.57;7.68;;;5.70;77.20;;;;;;5055988;28;20457;-79
2022/12/09 11:15:00;;;;;;;10.70;7.53;;;5.70;77.30;;;;;;5073789;28;20036;-81
2022/12/09 11:17:28;;;;;;;10.68;7.43;;;5.70;77.20;;;;;;5055547;28;20063;-81
2022/12/09 11:20:10;;;;;;;11.00;7.88;;;5.70;77.20;;;;;;5074990;28;20032;-80
2022/12/09 11:22:38;;;;;;;12.10;8.52;;;5.70;77.20;;;;;;5076430;28;20040;-80
2022/12/09 11:25:14;;;;;;;11.85;8.20;;;5.70;77.20;;;;;;5060077;28;20029;-81
2022/12/09 11:27:58;;;;;;;11.77;7.70;;;5.80;77.20;;;;;;5076729;28;20056;-81
2022/12/09 11:30:29;;;;;;;11.80;8.30;;;5.80;77.30;;;;;;5076619;28;20044;-80
2022/12/09 11:33:13;;;;;;;11.30;8.05;;;5.80;77.20;;;;;;5076209;28;20025;-79
2022/12/09 11:35:44;;;;;;;12.63;7.78;;;5.80;77.20;;;;;;5076073;28;20373;-78
2022/12/09 11:38:29;;;;;;;11.00;7.97;;;5.80;77.20;;;;;;5077121;28;20035;-79
2022/12/09 11:41:04;;;;;;;10.73;7.60;;;5.80;77.20;;;;;;5058972;28;20032;-79
2022/12/09 11:43:47;;;;;;;;;;;5.90;77.20;;;;;;5077127;28;20029;-80
2022/12/09 11:46:13;;;;;;;10.15;6.88;;;5.80;77.00;;;;;;5059174;28;20272;-79
2022/12/09 11:49:03;;;;;;;11.70;8.05;;;5.90;77.00;;;;;;5076587;28;20028;-80
2022/12/09 11:51:33;;;;;;;11.20;7.65;;;5.90;77.20;;;;;;5077136;28;20473;-79
2022/12/09 11:54:37;;;;;;;10.50;7.78;;;5.90;77.10;;;;;;5042059;28;20020;-79
2022/12/09 11:57:11;;;;;;;9.30;6.82;;;5.90;77.20;;;;;;5062679;28;20041;-78
2022/12/09 11:59:47;;;;;;;10.90;7.05;;;5.90;77.10;;;;;;5059114;28;20038;-78
2022/12/09 12:02:48;;;;;;;10.10;7.05;;;6.00;77.20;;;;;;5076723;28;20032;-78
2022/12/09 12:05:44;;;;;;;10.20;7.25;;;6.00;77.20;;;;;;5014513;28;20046;-79
2022/12/09 12:08:32;;;;;;;10.57;7.57;;;6.00;77.10;;;;;;5074991;28;20099;-77
2022/12/09 12:11:08;;;;;;;10.40;7.35;;;6.00;77.10;;;;;;5075522;28;20033;-79
2022/12/09 12:13:49;;;;;;;10.55;7.05;;;6.00;77.10;;;;;;5058849;28;20517;-80
2022/12/09 12:16:50;;;;;;;9.85;6.95;;;6.10;77.30;;;;;;5059298;28;20029;-77
2022/12/09 12:19:34;;;;;;;9.48;6.65;;;6.10;77.20;;;;;;5075121;28;20031;-80
2022/12/09 12:22:27;;;;;;;10.85;7.40;;;6.10;77.20;;;;;;5074920;28;20055;-84
2022/12/09 12:25:03;;;;;;;10.48;7.40;;;6.10;77.20;;;;;;5075447;28;20119;-83
2022/12/09 12:27:54;;;;;;;11.05;7.60;;;6.10;77.20;;;;;;5075447;28;20191;-82
2022/12/09 12:30:23;;;;;;;10.73;7.80;;;6.20;77.30;;;;;;5074826;28;20107;-83
2022/12/09 12:33:07;;;;;;;9.85;7.35;;;6.20;77.20;;;;;;5074616;28;20024;-84
2022/12/09 12:35:51;;;;;;;10.18;7.18;;;6.20;77.30;;;;;;5076254;28;20117;-82
2022/12/09 12:38:38;;;;;;;11.38;7.22;;;6.20;77.20;;;;;;5075939;28;20092;-83
2022/12/09 12:41:42;;;;;;;10.20;6.93;;;6.20;77.20;;;;;;5075555;28;20028;-82
2022/12/09 12:47:46;;;;;;;8.90;5.97;;;6.20;77.10;;;;;;5058763;28;20033;-83
2022/12/09 12:50:30;;;;;;;9.75;6.47;;;6.20;77.10;;;;;;5058515;28;20097;-84
2022/12/09 12:53:05;;;;;;;8.88;6.28;;;6.30;77.10;;;;;;5076290;28;20029;-81
2022/12/09 12:56:22;;;;;;;8.98;6.43;;;6.30;77.10;;;;;;5076011;28;20056;-82
2022/12/09 12:59:15;;;;;;;10.57;6.97;;;6.30;77.20;;;;;;5024944;28;20118;-79
2022/12/09 13:01:59;;;;;;;8.90;5.82;;;6.30;77.10;;;;;;5057881;28;20082;-80
2022/12/09 13:04:37;;;;;;;8.48;6.15;;;6.30;77.10;;;;;;5057671;28;20032;-80
2022/12/09 13:07:28;;;;;;;9.20;6.40;;;6.30;77.10;;;;;;5074951;28;20032;-79
2022/12/09 13:10:00;;;;;;;9.10;6.03;;;6.30;77.10;;;;;;5058026;28;20438;-80
2022/12/09 13:13:00;;;;;;;9.98;6.63;;;6.30;77.10;;;;;;5075598;28;20024;-79